createdAt,value
2023-06-18T00:02:07.633Z,11.45
2023-06-18T00:04:36.584Z,11.42
2023-06-18T00:07:05.287Z,11.42
2023-06-18T00:09:33.615Z,11.39
2023-06-18T00:12:01.951Z,11.37
2023-06-18T00:14:30.294Z,11.37
2023-06-18T00:16:59.108Z,11.35
2023-06-18T00:19:29.045Z,11.32
2023-06-18T00:21:58.046Z,11.30
2023-06-18T00:24:26.435Z,11.27
2023-06-18T00:26:54.821Z,11.26
2023-06-18T00:29:23.396Z,11.24
2023-06-18T00:31:52.123Z,11.23
2023-06-18T00:34:20.554Z,11.20
2023-06-18T00:36:51.992Z,11.18
2023-06-18T00:39:20.441Z,11.14
2023-06-18T00:41:48.814Z,11.10
2023-06-18T00:44:21.675Z,11.08
2023-06-18T00:46:50.578Z,11.07
2023-06-18T00:49:19.935Z,11.04
2023-06-18T00:51:49.734Z,11.01
2023-06-18T00:54:18.522Z,10.98
2023-06-18T00:56:52.219Z,10.93
2023-06-18T00:59:23.909Z,10.90
2023-06-18T01:01:53.118Z,10.87
2023-06-18T01:04:22.273Z,10.85
2023-06-18T01:06:53.788Z,10.83
2023-06-18T01:09:22.969Z,10.83
2023-06-18T01:11:52.762Z,10.83
2023-06-18T01:14:23.039Z,10.81
2023-06-18T01:16:52.761Z,10.79
2023-06-18T01:19:36.890Z,10.81
2023-06-18T01:22:09.506Z,10.76
2023-06-18T01:24:39.730Z,10.76
2023-06-18T01:27:09.669Z,10.75
2023-06-18T01:29:40.682Z,10.69
2023-06-18T01:32:09.706Z,10.67
2023-06-18T01:34:40.494Z,10.62
2023-06-18T01:37:16.054Z,10.59
2023-06-18T01:39:47.911Z,10.57
2023-06-18T01:42:17.457Z,10.54
2023-06-18T01:44:46.724Z,10.54
2023-06-18T01:47:15.752Z,10.51
2023-06-18T01:49:44.581Z,10.50
2023-06-18T01:52:17.178Z,10.47
2023-06-18T01:54:46.033Z,10.41
2023-06-18T01:57:14.389Z,10.41
2023-06-18T01:59:43.123Z,10.40
2023-06-18T02:02:11.605Z,10.39
2023-06-18T02:04:44.999Z,10.37
2023-06-18T02:07:16.190Z,10.35
2023-06-18T02:09:45.270Z,10.34
2023-06-18T02:12:13.663Z,10.30
2023-06-18T02:14:41.996Z,10.27
2023-06-18T02:17:11.633Z,10.26
2023-06-18T02:19:40.230Z,10.23
2023-06-18T02:22:08.606Z,10.21
2023-06-18T02:24:38.533Z,10.20
2023-06-18T02:27:07.337Z,10.18
2023-06-18T02:29:35.670Z,10.17
2023-06-18T02:32:05.864Z,10.15
2023-06-18T02:34:35.712Z,10.10
2023-06-18T02:37:04.156Z,10.08
2023-06-18T02:39:32.488Z,10.07
2023-06-18T02:42:03.244Z,10.03
2023-06-18T02:44:32.701Z,10.03
2023-06-18T02:47:01.692Z,10.01
2023-06-18T02:49:30.154Z,9.99
2023-06-18T02:51:58.643Z,9.98
2023-06-18T02:54:27.241Z,9.98
2023-06-18T02:56:55.656Z,9.99
2023-06-18T02:59:25.451Z,9.97
2023-06-18T03:01:54.815Z,9.96
2023-06-18T03:04:23.613Z,9.96
2023-06-18T03:06:51.941Z,9.97
2023-06-18T03:09:20.367Z,9.94
2023-06-18T03:11:49.213Z,9.94
2023-06-18T03:14:17.978Z,9.93
2023-06-18T03:16:48.151Z,9.94
2023-06-18T03:19:16.601Z,9.93
2023-06-18T03:21:45.303Z,9.94
2023-06-18T03:24:15.975Z,9.95
2023-06-18T03:26:46.682Z,9.96
2023-06-18T03:29:17.724Z,10.00
2023-06-18T03:31:48.251Z,10.01
2023-06-18T03:34:17.571Z,10.03
2023-06-18T03:36:48.108Z,10.07
2023-06-18T03:39:17.344Z,10.11
2023-06-18T03:41:46.380Z,10.16
2023-06-18T03:44:15.433Z,10.23
2023-06-18T03:46:43.849Z,10.27
2023-06-18T03:49:14.746Z,10.33
2023-06-18T03:51:43.488Z,10.37
2023-06-18T03:54:11.937Z,10.44
2023-06-18T03:56:40.669Z,10.52
2023-06-18T03:59:13.767Z,10.58
2023-06-18T04:01:42.433Z,10.66
2023-06-18T04:04:11.229Z,10.75
2023-06-18T04:06:41.241Z,10.83
2023-06-18T04:09:10.083Z,10.91
2023-06-18T04:11:41.486Z,10.97
2023-06-18T04:14:09.995Z,11.05
2023-06-18T04:16:38.703Z,11.13
2023-06-18T04:19:07.527Z,11.20
2023-06-18T04:21:38.340Z,11.30
2023-06-18T04:24:09.041Z,11.37
2023-06-18T04:26:37.418Z,11.46
2023-06-18T04:29:05.838Z,11.54
2023-06-18T04:31:34.477Z,11.65
2023-06-18T04:34:02.851Z,11.74
2023-06-18T04:36:31.929Z,11.85
2023-06-18T04:39:01.413Z,11.97
2023-06-18T04:41:31.306Z,12.09
2023-06-18T04:43:59.803Z,12.23
2023-06-18T04:46:28.164Z,12.36
2023-06-18T04:48:57.930Z,12.52
2023-06-18T04:51:26.331Z,12.70
2023-06-18T04:53:55.041Z,12.84
2023-06-18T04:56:24.628Z,12.99
2023-06-18T04:58:55.457Z,13.19
2023-06-18T05:01:23.897Z,13.37
2023-06-18T05:03:52.524Z,13.54
2023-06-18T05:06:22.501Z,13.74
2023-06-18T05:08:51.978Z,13.90
2023-06-18T05:11:20.589Z,14.07
2023-06-18T05:13:50.510Z,14.27
2023-06-18T05:16:20.924Z,14.48
2023-06-18T05:18:50.501Z,14.64
2023-06-18T05:21:18.899Z,14.86
2023-06-18T05:23:47.537Z,15.05
2023-06-18T05:26:16.536Z,15.22
2023-06-18T05:28:45.014Z,15.40
2023-06-18T05:31:14.098Z,15.58
2023-06-18T05:33:44.415Z,15.81
2023-06-18T05:36:13.001Z,16.01
2023-06-18T05:38:41.341Z,16.18
2023-06-18T05:41:09.774Z,16.38
2023-06-18T05:43:38.207Z,16.58
2023-06-18T05:46:07.049Z,16.78
2023-06-18T05:48:37.366Z,17.00
2023-06-18T05:51:18.076Z,17.18
2023-06-18T05:53:46.470Z,17.34
2023-06-18T05:56:16.634Z,17.50
2023-06-18T05:58:44.976Z,17.70
2023-06-18T06:01:14.305Z,17.87
2023-06-18T06:03:42.764Z,18.04
2023-06-18T06:06:11.234Z,18.23
2023-06-18T06:08:41.014Z,18.42
2023-06-18T06:11:13.679Z,18.65
2023-06-18T06:13:42.936Z,18.82
2023-06-18T06:16:13.360Z,18.95
2023-06-18T06:18:42.931Z,19.09
2023-06-18T06:21:11.578Z,19.24
2023-06-18T06:23:41.411Z,19.55
2023-06-18T06:26:10.253Z,19.77
2023-06-18T06:28:40.032Z,20.07
2023-06-18T06:31:11.372Z,20.28
2023-06-18T06:33:40.556Z,20.50
2023-06-18T06:36:10.822Z,20.61
2023-06-18T06:38:41.702Z,20.80
2023-06-18T06:41:12.215Z,20.84
2023-06-18T06:43:41.921Z,21.01
2023-06-18T06:46:42.529Z,21.25
2023-06-18T06:49:18.511Z,21.36
2023-06-18T06:52:05.663Z,21.56
2023-06-18T06:54:35.516Z,21.66
2023-06-18T06:57:04.017Z,21.74
2023-06-18T06:59:32.426Z,21.89
2023-06-18T07:02:01.955Z,21.93
2023-06-18T07:04:32.944Z,21.91
2023-06-18T07:07:01.651Z,22.01
2023-06-18T07:09:30.290Z,22.13
2023-06-18T07:12:00.125Z,22.28
2023-06-18T07:14:28.521Z,22.38
2023-06-18T07:16:56.988Z,22.44
2023-06-18T07:19:25.332Z,22.52
2023-06-18T07:21:54.831Z,22.63
2023-06-18T07:24:23.628Z,22.81
2023-06-18T07:26:51.993Z,23.00
2023-06-18T07:29:21.823Z,23.33
2023-06-18T07:31:50.149Z,23.52
2023-06-18T07:34:18.858Z,23.45
2023-06-18T07:36:47.233Z,23.47
2023-06-18T07:39:15.644Z,23.58
2023-06-18T07:41:48.559Z,23.68
2023-06-18T07:44:17.128Z,23.83
2023-06-18T07:46:46.925Z,23.92
2023-06-18T07:49:17.961Z,24.02
2023-06-18T07:51:46.494Z,24.26
2023-06-18T07:54:14.867Z,24.42
2023-06-18T07:56:43.313Z,24.51
2023-06-18T07:59:11.744Z,24.61
2023-06-18T08:01:40.458Z,24.76
2023-06-18T08:04:10.598Z,24.93
2023-06-18T08:06:39.036Z,25.10
2023-06-18T08:09:07.423Z,24.92
2023-06-18T08:11:35.872Z,24.97
2023-06-18T08:14:05.497Z,25.20
2023-06-18T08:16:34.280Z,25.18
2023-06-18T08:19:02.655Z,25.06
2023-06-18T08:21:32.542Z,25.07
2023-06-18T08:24:00.957Z,25.42
2023-06-18T08:26:29.346Z,25.48
2023-06-18T08:28:57.765Z,25.54
2023-06-18T08:31:26.436Z,25.60
2023-06-18T08:33:54.817Z,25.56
2023-06-18T08:36:23.445Z,25.45
2023-06-18T08:38:53.678Z,25.45
2023-06-18T08:41:22.387Z,25.42
2023-06-18T08:43:51.131Z,25.57
2023-06-18T08:46:20.078Z,25.75
2023-06-18T08:48:50.752Z,25.78
2023-06-18T08:51:19.357Z,25.86
2023-06-18T08:53:48.679Z,25.90
2023-06-18T08:56:18.458Z,25.79
2023-06-18T08:58:50.601Z,26.12
2023-06-18T09:01:19.503Z,26.26
2023-06-18T09:03:48.417Z,26.40
2023-06-18T09:06:16.993Z,26.58
2023-06-18T09:08:46.053Z,26.70
2023-06-18T09:11:15.289Z,26.68
2023-06-18T09:13:45.644Z,26.31
2023-06-18T09:16:14.158Z,26.50
2023-06-18T09:18:42.483Z,26.68
2023-06-18T09:21:10.841Z,26.81
2023-06-18T09:23:39.220Z,26.96
2023-06-18T09:26:07.586Z,27.07
2023-06-18T09:28:36.587Z,27.22
2023-06-18T09:31:08.073Z,27.63
2023-06-18T09:33:37.018Z,27.66
2023-06-18T09:36:07.284Z,27.85
2023-06-18T09:38:36.765Z,27.75
2023-06-18T09:41:11.239Z,27.86
2023-06-18T09:43:40.395Z,28.04
2023-06-18T09:46:10.264Z,28.31
2023-06-18T09:48:42.043Z,28.14
2023-06-18T09:51:10.919Z,28.32
2023-06-18T09:53:39.371Z,28.41
2023-06-18T09:56:11.902Z,28.75
2023-06-18T09:58:44.955Z,29.31
2023-06-18T10:01:14.726Z,29.70
2023-06-18T10:03:43.977Z,29.55
2023-06-18T10:06:17.980Z,29.63
2023-06-18T10:08:47.886Z,29.81
2023-06-18T10:11:17.052Z,29.96
2023-06-18T10:13:48.692Z,30.17
2023-06-18T10:16:19.363Z,30.19
2023-06-18T10:19:02.985Z,30.49
2023-06-18T10:21:31.445Z,29.77
2023-06-18T10:24:04.240Z,30.01
2023-06-18T10:26:32.675Z,29.05
2023-06-18T10:29:01.354Z,28.31
2023-06-18T10:31:31.192Z,28.28
2023-06-18T10:34:01.036Z,28.80
2023-06-18T10:36:30.015Z,29.23
2023-06-18T10:38:59.016Z,29.50
2023-06-18T10:41:28.582Z,29.45
2023-06-18T10:43:57.431Z,29.97
2023-06-18T10:46:26.011Z,30.20
2023-06-18T10:49:23.617Z,30.21
2023-06-18T10:52:25.537Z,30.37
2023-06-18T10:54:56.231Z,30.54
2023-06-18T10:57:27.957Z,30.88
2023-06-18T10:59:58.697Z,30.40
2023-06-18T11:02:33.732Z,30.84
2023-06-18T11:05:04.188Z,30.50
2023-06-18T11:07:32.738Z,29.67
2023-06-18T11:10:03.512Z,28.91
2023-06-18T11:12:33.193Z,28.37
2023-06-18T11:15:23.425Z,28.58
2023-06-18T11:17:52.473Z,28.77
2023-06-18T11:20:23.265Z,29.14
2023-06-18T11:22:56.343Z,29.25
2023-06-18T11:25:25.220Z,29.57
2023-06-18T11:27:55.548Z,29.65
2023-06-18T11:30:23.956Z,29.89
2023-06-18T11:32:52.495Z,30.07
2023-06-18T11:35:22.715Z,29.98
2023-06-18T11:37:51.403Z,30.25
2023-06-18T11:40:20.289Z,30.31
2023-06-18T11:42:53.464Z,30.54
2023-06-18T11:45:22.745Z,30.62
2023-06-18T11:47:53.084Z,30.67
2023-06-18T11:50:24.861Z,30.36
2023-06-18T11:52:58.717Z,29.64
2023-06-18T11:55:27.473Z,29.73
2023-06-18T11:58:01.236Z,29.25
2023-06-18T12:00:29.718Z,29.08
2023-06-18T12:02:58.385Z,29.09
2023-06-18T12:05:28.809Z,29.22
2023-06-18T12:07:57.722Z,29.60
2023-06-18T12:10:34.928Z,29.68
2023-06-18T12:13:07.402Z,29.75
2023-06-18T12:15:39.217Z,29.71
2023-06-18T12:18:17.447Z,29.44
2023-06-18T12:20:51.169Z,29.25
2023-06-18T12:23:21.068Z,28.93
2023-06-18T12:25:50.540Z,28.60
2023-06-18T12:28:19.373Z,28.58
2023-06-18T12:30:48.365Z,28.50
2023-06-18T12:33:17.120Z,28.27
2023-06-18T12:35:47.894Z,28.16
2023-06-18T12:38:17.923Z,28.16
2023-06-18T12:40:48.078Z,28.19
2023-06-18T12:43:17.380Z,27.90
2023-06-18T12:45:52.540Z,27.72
2023-06-18T12:48:25.970Z,27.63
2023-06-18T12:50:55.383Z,27.53
2023-06-18T12:53:26.451Z,27.30
2023-06-18T12:55:55.672Z,27.41
2023-06-18T12:58:25.478Z,27.52
2023-06-18T13:00:55.138Z,27.32
2023-06-18T13:03:24.305Z,27.19
2023-06-18T13:05:53.228Z,27.20
2023-06-18T13:08:23.197Z,27.36
2023-06-18T13:10:53.739Z,27.57
2023-06-18T13:13:22.245Z,27.80
2023-06-18T13:15:52.888Z,27.90
2023-06-18T13:18:21.660Z,27.88
2023-06-18T13:20:50.678Z,27.92
2023-06-18T13:23:19.317Z,27.97
2023-06-18T13:25:47.852Z,27.91
2023-06-18T13:28:18.369Z,27.92
2023-06-18T13:30:46.802Z,28.06
2023-06-18T13:33:15.498Z,27.87
2023-06-18T13:35:44.373Z,27.92
2023-06-18T13:38:13.261Z,28.10
2023-06-18T13:40:41.674Z,28.05
2023-06-18T13:43:13.065Z,28.00
2023-06-18T13:45:43.610Z,28.17
2023-06-18T13:48:13.520Z,28.28
2023-06-18T13:50:41.956Z,28.15
2023-06-18T13:53:12.292Z,28.30
2023-06-18T13:55:40.994Z,28.54
2023-06-18T13:58:09.479Z,28.93
2023-06-18T14:00:39.376Z,29.08
2023-06-18T14:03:09.404Z,29.19
2023-06-18T14:05:38.906Z,29.40
2023-06-18T14:08:09.117Z,29.50
2023-06-18T14:10:37.639Z,29.52
2023-06-18T14:13:06.425Z,29.74
2023-06-18T14:15:34.928Z,29.77
2023-06-18T14:18:03.567Z,29.95
2023-06-18T14:20:33.479Z,29.82
2023-06-18T14:23:02.472Z,29.85
2023-06-18T14:25:31.090Z,29.86
2023-06-18T14:28:00.149Z,29.75
2023-06-18T14:30:29.307Z,29.87
2023-06-18T14:32:57.734Z,29.63
2023-06-18T14:35:26.240Z,29.61
2023-06-18T14:37:56.054Z,29.40
2023-06-18T14:40:27.328Z,29.51
2023-06-18T14:42:56.530Z,29.37
2023-06-18T14:45:25.217Z,29.22
2023-06-18T14:47:54.055Z,29.29
2023-06-18T14:50:22.411Z,29.38
2023-06-18T14:52:50.785Z,29.38
2023-06-18T14:55:21.147Z,29.27
2023-06-18T14:57:49.866Z,29.30
2023-06-18T15:00:18.678Z,29.53
2023-06-18T15:02:52.941Z,29.56
2023-06-18T15:05:22.098Z,29.57
2023-06-18T15:07:51.102Z,29.46
2023-06-18T15:10:20.986Z,29.48
2023-06-18T15:12:49.294Z,29.62
2023-06-18T15:15:17.729Z,29.66
2023-06-18T15:17:46.139Z,29.49
2023-06-18T15:20:15.245Z,29.39
2023-06-18T15:22:43.673Z,29.30
2023-06-18T15:25:12.052Z,29.24
2023-06-18T15:27:43.486Z,29.35
2023-06-18T15:30:13.064Z,29.42
2023-06-18T15:32:41.506Z,29.59
2023-06-18T15:35:10.856Z,29.61
2023-06-18T15:37:39.311Z,29.34
2023-06-18T15:40:09.099Z,29.27
2023-06-18T15:42:37.453Z,29.11
2023-06-18T15:45:08.757Z,29.09
2023-06-18T15:47:37.617Z,29.05
2023-06-18T15:50:07.949Z,29.25
2023-06-18T15:52:36.627Z,29.46
2023-06-18T15:55:05.257Z,29.41
2023-06-18T15:57:33.670Z,29.23
2023-06-18T16:00:02.292Z,29.24
2023-06-18T16:02:38.543Z,29.30
2023-06-18T16:05:09.960Z,29.34
2023-06-18T16:07:39.916Z,29.33
2023-06-18T16:10:09.378Z,29.34
2023-06-18T16:12:37.701Z,29.43
2023-06-18T16:15:07.486Z,29.43
2023-06-18T16:17:36.057Z,29.34
2023-06-18T16:20:06.840Z,29.35
2023-06-18T16:22:36.334Z,29.37
2023-06-18T16:25:05.109Z,29.37
2023-06-18T16:27:33.716Z,29.25
2023-06-18T16:30:02.058Z,29.23
2023-06-18T16:32:31.493Z,29.16
2023-06-18T16:35:00.021Z,28.91
2023-06-18T16:37:29.836Z,29.04
2023-06-18T16:39:58.180Z,29.12
2023-06-18T16:42:26.776Z,28.90
2023-06-18T16:44:55.134Z,28.80
2023-06-18T16:47:23.564Z,28.75
2023-06-18T16:49:51.930Z,28.80
2023-06-18T16:52:20.277Z,28.78
2023-06-18T16:54:50.312Z,28.73
2023-06-18T16:57:18.643Z,28.82
2023-06-18T16:59:46.979Z,28.77
2023-06-18T17:02:15.444Z,28.55
2023-06-18T17:04:43.989Z,28.56
2023-06-18T17:07:12.350Z,28.50
2023-06-18T17:09:40.977Z,28.45
2023-06-18T17:12:11.133Z,28.22
2023-06-18T17:14:39.648Z,27.92
2023-06-18T17:17:08.180Z,27.68
2023-06-18T17:19:37.677Z,27.58
2023-06-18T17:22:07.593Z,27.49
2023-06-18T17:24:35.915Z,27.37
2023-06-18T17:27:04.369Z,27.25
2023-06-18T17:29:34.208Z,27.16
2023-06-18T17:32:03.643Z,26.96
2023-06-18T17:34:32.832Z,26.78
2023-06-18T17:37:01.459Z,26.63
2023-06-18T17:39:30.375Z,26.44
2023-06-18T17:41:58.751Z,26.28
2023-06-18T17:44:27.096Z,26.10
2023-06-18T17:46:56.935Z,26.09
2023-06-18T17:49:25.815Z,25.80
2023-06-18T17:51:54.446Z,25.61
2023-06-18T17:54:22.824Z,25.43
2023-06-18T17:56:51.225Z,25.28
2023-06-18T17:59:19.656Z,25.17
2023-06-18T18:01:49.661Z,25.01
2023-06-18T18:04:19.847Z,24.81
2023-06-18T18:06:48.235Z,24.62
2023-06-18T18:09:16.658Z,24.45
2023-06-18T18:11:44.996Z,24.27
2023-06-18T18:14:14.074Z,24.08
2023-06-18T18:16:43.051Z,23.94
2023-06-18T18:19:12.047Z,23.72
2023-06-18T18:21:41.773Z,23.62
2023-06-18T18:24:10.776Z,23.52
2023-06-18T18:26:47.934Z,23.36
2023-06-18T18:29:17.101Z,23.19
2023-06-18T18:31:45.937Z,23.04
2023-06-18T18:34:14.292Z,22.89
2023-06-18T18:36:44.056Z,22.72
2023-06-18T18:39:12.471Z,22.62
2023-06-18T18:41:40.889Z,22.46
2023-06-18T18:44:09.490Z,22.30
2023-06-18T18:46:38.186Z,22.15
2023-06-18T18:49:06.595Z,22.02
2023-06-18T18:51:34.981Z,21.87
2023-06-18T18:54:04.960Z,21.73
2023-06-18T18:56:34.999Z,21.61
2023-06-18T18:59:05.045Z,21.48
2023-06-18T19:01:33.437Z,21.31
2023-06-18T19:04:01.904Z,21.19
2023-06-18T19:06:30.277Z,21.07
2023-06-18T19:08:58.588Z,20.95
2023-06-18T19:11:28.447Z,20.84
2023-06-18T19:13:57.462Z,20.74
2023-06-18T19:16:26.046Z,20.62
2023-06-18T19:18:57.001Z,20.51
2023-06-18T19:21:25.461Z,20.36
2023-06-18T19:23:55.412Z,20.24
2023-06-18T19:26:24.396Z,20.11
2023-06-18T19:28:54.733Z,19.97
2023-06-18T19:31:23.302Z,19.87
2023-06-18T19:33:51.626Z,19.77
2023-06-18T19:36:20.717Z,19.64
2023-06-18T19:38:49.877Z,19.54
2023-06-18T19:41:18.408Z,19.45
2023-06-18T19:43:46.792Z,19.35
2023-06-18T19:46:16.587Z,19.24
2023-06-18T19:48:44.926Z,19.14
2023-06-18T19:51:16.109Z,19.05
2023-06-18T19:53:45.542Z,18.97
2023-06-18T19:56:14.210Z,18.89
2023-06-18T19:58:42.589Z,18.84
2023-06-18T20:01:11.280Z,18.75
2023-06-18T20:03:41.400Z,18.71
2023-06-18T20:06:10.203Z,18.64
2023-06-18T20:08:38.543Z,18.59
2023-06-18T20:11:07.661Z,18.55
2023-06-18T20:13:36.092Z,18.49
2023-06-18T20:16:04.585Z,18.43
2023-06-18T20:18:32.929Z,18.38
2023-06-18T20:21:03.204Z,18.33
2023-06-18T20:23:31.813Z,18.25
2023-06-18T20:26:00.198Z,18.19
2023-06-18T20:28:28.549Z,18.13
2023-06-18T20:30:56.852Z,18.07
2023-06-18T20:33:26.534Z,17.97
2023-06-18T20:35:54.875Z,17.90
2023-06-18T20:38:24.730Z,17.83
2023-06-18T20:40:53.113Z,17.76
2023-06-18T20:43:21.486Z,17.68
2023-06-18T20:45:49.917Z,17.58
2023-06-18T20:48:18.669Z,17.51
2023-06-18T20:50:47.308Z,17.43
2023-06-18T20:53:15.679Z,17.37
2023-06-18T20:55:45.515Z,17.29
2023-06-18T20:58:13.905Z,17.19
2023-06-18T21:00:42.695Z,17.12
2023-06-18T21:03:11.146Z,17.05
2023-06-18T21:05:39.599Z,16.99
2023-06-18T21:08:07.954Z,16.93
2023-06-18T21:10:36.310Z,16.87
2023-06-18T21:13:06.671Z,16.83
2023-06-18T21:15:35.008Z,16.73
2023-06-18T21:18:03.498Z,16.69
2023-06-18T21:20:32.388Z,16.62
2023-06-18T21:23:00.788Z,16.56
2023-06-18T21:25:29.162Z,16.52
2023-06-18T21:27:57.871Z,16.47
2023-06-18T21:30:27.865Z,16.45
2023-06-18T21:32:56.238Z,16.41
2023-06-18T21:35:25.049Z,16.39
2023-06-18T21:37:54.478Z,16.36
2023-06-18T21:40:23.528Z,16.31
2023-06-18T21:42:52.545Z,16.22
2023-06-18T21:45:21.204Z,16.16
2023-06-18T21:47:51.086Z,16.09
2023-06-18T21:50:19.540Z,16.02
2023-06-18T21:52:48.142Z,15.96
2023-06-18T21:55:16.945Z,15.89
2023-06-18T21:57:45.777Z,15.85
2023-06-18T22:00:15.206Z,15.84
2023-06-18T22:02:43.704Z,15.84
2023-06-18T22:05:13.496Z,15.78
2023-06-18T22:07:42.801Z,15.77
2023-06-18T22:10:12.115Z,15.79
2023-06-18T22:12:40.523Z,15.76
2023-06-18T22:15:10.222Z,15.79
2023-06-18T22:17:38.616Z,15.76
2023-06-18T22:20:09.069Z,15.74
2023-06-18T22:22:39.279Z,15.70
2023-06-18T22:25:08.767Z,15.62
2023-06-18T22:27:37.182Z,15.59
2023-06-18T22:30:06.567Z,15.58
2023-06-18T22:32:35.062Z,15.57
2023-06-18T22:35:03.490Z,15.55
2023-06-18T22:37:32.326Z,15.52
2023-06-18T22:40:03.488Z,15.47
2023-06-18T22:42:32.236Z,15.42
2023-06-18T22:45:00.685Z,15.37
2023-06-18T22:47:29.150Z,15.32
2023-06-18T22:49:57.893Z,15.28
2023-06-18T22:52:26.315Z,15.27
2023-06-18T22:54:54.731Z,15.22
2023-06-18T22:57:24.646Z,15.21
2023-06-18T22:59:53.044Z,15.15
2023-06-18T23:02:21.686Z,15.11
2023-06-18T23:04:50.382Z,15.08
2023-06-18T23:07:19.062Z,15.10
2023-06-18T23:09:47.508Z,15.10
2023-06-18T23:12:15.883Z,15.06
2023-06-18T23:14:45.636Z,15.09
2023-06-18T23:17:14.198Z,15.08
2023-06-18T23:19:42.920Z,15.04
2023-06-18T23:22:11.264Z,15.07
2023-06-18T23:24:39.674Z,15.13
2023-06-18T23:27:08.136Z,15.14
2023-06-18T23:29:38.916Z,15.17
2023-06-18T23:32:09.867Z,15.30
2023-06-18T23:34:42.517Z,15.40
2023-06-18T23:37:12.355Z,15.40
2023-06-18T23:39:40.957Z,15.47
2023-06-18T23:42:09.919Z,15.54
2023-06-18T23:44:38.873Z,15.53
2023-06-18T23:47:08.993Z,15.58
2023-06-18T23:49:37.436Z,15.70
2023-06-18T23:52:06.527Z,15.87
2023-06-18T23:54:34.902Z,15.99
2023-06-18T23:57:03.275Z,16.02
2023-06-18T23:59:33.404Z,16.08
